createdAt,value
2022-12-18T00:01:26.835Z,25.23
2022-12-18T00:03:55.237Z,25.77
2022-12-18T00:06:23.830Z,24.85
2022-12-18T00:08:51.981Z,23.73
2022-12-18T00:11:21.742Z,22.65
2022-12-18T00:13:49.304Z,22.83
2022-12-18T00:16:21.896Z,22.98
2022-12-18T00:18:50.624Z,23.42
2022-12-18T00:21:17.891Z,23.23
2022-12-18T00:23:46.394Z,24.40
2022-12-18T00:26:23.832Z,26.38
2022-12-18T00:28:54.887Z,22.48
2022-12-18T00:31:24.476Z,24.35
2022-12-18T00:33:56.535Z,22.92
2022-12-18T00:36:26.805Z,22.67
2022-12-18T00:38:56.325Z,24.88
2022-12-18T00:42:00.399Z,26.67
2022-12-18T00:44:27.368Z,22.70
2022-12-18T00:46:54.328Z,26.40
2022-12-18T00:49:21.912Z,26.98
2022-12-18T00:51:50.698Z,25.58
2022-12-18T00:54:18.611Z,24.58
2022-12-18T00:56:49.382Z,25.20
2022-12-18T00:59:18.520Z,24.60
2022-12-18T01:01:46.301Z,24.98
2022-12-18T01:04:13.478Z,24.23
2022-12-18T01:06:41.169Z,23.10
2022-12-18T01:09:08.263Z,23.15
2022-12-18T01:11:37.368Z,23.25
2022-12-18T01:14:05.259Z,24.30
2022-12-18T01:16:32.350Z,28.17
2022-12-18T01:18:59.322Z,23.30
2022-12-18T01:21:28.330Z,22.63
2022-12-18T01:23:56.779Z,20.27
2022-12-18T01:26:25.953Z,28.42
2022-12-18T01:28:54.787Z,23.10
2022-12-18T01:31:29.085Z,22.50
2022-12-18T01:33:56.981Z,23.70
2022-12-18T01:36:29.752Z,22.67
2022-12-18T01:38:57.470Z,22.92
2022-12-18T01:41:48.050Z,22.70
2022-12-18T01:44:52.919Z,24.27
2022-12-18T01:47:28.309Z,27.25
2022-12-18T01:49:56.748Z,26.00
2022-12-18T01:52:27.850Z,22.77
2022-12-18T01:54:56.380Z,24.42
2022-12-18T01:57:24.646Z,26.23
2022-12-18T01:59:54.680Z,23.67
2022-12-18T02:02:22.192Z,25.63
2022-12-18T02:04:49.790Z,20.42
2022-12-18T02:07:56.757Z,22.25
2022-12-18T02:10:41.361Z,23.13
2022-12-18T02:13:33.154Z,25.83
2022-12-18T02:16:05.293Z,23.80
2022-12-18T02:18:37.834Z,24.00
2022-12-18T02:21:28.659Z,23.90
2022-12-18T02:24:22.930Z,22.08
2022-12-18T02:26:59.185Z,21.67
2022-12-18T02:29:37.717Z,24.85
2022-12-18T02:32:10.256Z,22.75
2022-12-18T02:34:40.774Z,24.85
2022-12-18T02:37:16.524Z,24.02
2022-12-18T02:39:47.688Z,25.63
2022-12-18T02:42:17.704Z,25.52
2022-12-18T02:44:47.634Z,26.50
2022-12-18T02:47:23.181Z,25.83
2022-12-18T02:49:56.192Z,27.55
2022-12-18T02:52:38.337Z,30.63
2022-12-18T02:55:30.695Z,26.45
2022-12-18T02:58:27.922Z,24.20
2022-12-18T03:01:02.802Z,25.90
2022-12-18T03:03:39.687Z,28.52
2022-12-18T03:06:16.052Z,29.38
2022-12-18T03:08:47.730Z,31.05
2022-12-18T03:11:15.805Z,26.35
2022-12-18T03:13:49.531Z,29.35
2022-12-18T03:16:23.176Z,26.15
2022-12-18T03:18:58.400Z,26.02
2022-12-18T03:21:39.187Z,28.77
2022-12-18T03:24:10.375Z,29.08
2022-12-18T03:26:42.018Z,30.02
2022-12-18T03:29:15.048Z,33.03
2022-12-18T03:31:47.324Z,24.23
2022-12-18T03:34:19.016Z,28.90
2022-12-18T03:36:47.693Z,32.40
2022-12-18T03:39:15.553Z,31.30
2022-12-18T03:41:59.285Z,29.95
2022-12-18T03:44:59.124Z,29.48
2022-12-18T03:47:26.115Z,35.15
2022-12-18T03:50:12.340Z,31.45
2022-12-18T03:52:50.171Z,28.38
2022-12-18T03:55:19.649Z,30.75
2022-12-18T03:57:52.142Z,34.20
2022-12-18T04:00:20.497Z,44.17
2022-12-18T04:03:06.962Z,38.90
2022-12-18T04:05:43.296Z,43.90
2022-12-18T04:08:10.682Z,53.22
2022-12-18T04:10:42.959Z,117.97
2022-12-18T04:13:10.647Z,83.20
2022-12-18T04:15:38.613Z,75.28
2022-12-18T04:18:10.690Z,84.43
2022-12-18T04:20:41.348Z,82.05
2022-12-18T04:23:09.094Z,57.63
2022-12-18T04:25:37.756Z,53.90
2022-12-18T04:28:08.338Z,53.28
2022-12-18T04:30:36.768Z,42.03
2022-12-18T04:33:03.784Z,68.65
2022-12-18T04:35:32.088Z,63.95
2022-12-18T04:37:59.551Z,61.75
2022-12-18T04:40:27.807Z,85.32
2022-12-18T04:42:55.057Z,62.83
2022-12-18T04:45:21.998Z,62.72
2022-12-18T04:47:48.913Z,51.17
2022-12-18T04:50:15.880Z,52.75
2022-12-18T04:52:42.819Z,48.22
2022-12-18T04:55:09.894Z,38.00
2022-12-18T04:57:36.939Z,37.38
2022-12-18T05:00:04.767Z,49.00
2022-12-18T05:02:31.888Z,45.47
2022-12-18T05:04:59.044Z,44.15
2022-12-18T05:07:26.226Z,42.55
2022-12-18T05:09:53.220Z,38.47
2022-12-18T05:12:20.185Z,43.00
2022-12-18T05:14:47.189Z,43.42
2022-12-18T05:17:14.107Z,49.35
2022-12-18T05:19:41.151Z,42.90
2022-12-18T05:22:11.239Z,35.03
2022-12-18T05:24:38.230Z,39.55
2022-12-18T05:27:05.322Z,37.83
2022-12-18T05:29:32.292Z,38.40
2022-12-18T05:31:59.274Z,38.72
2022-12-18T05:34:26.238Z,40.10
2022-12-18T05:36:53.167Z,41.05
2022-12-18T05:39:20.141Z,45.67
2022-12-18T05:41:47.042Z,47.83
2022-12-18T05:44:13.969Z,42.28
2022-12-18T05:46:43.910Z,51.40
2022-12-18T05:49:10.885Z,39.20
2022-12-18T05:51:37.907Z,44.85
2022-12-18T05:54:04.877Z,39.75
2022-12-18T05:56:32.730Z,49.22
2022-12-18T05:59:00.075Z,48.03
2022-12-18T06:01:27.834Z,48.95
2022-12-18T06:03:56.067Z,36.25
2022-12-18T06:06:28.327Z,47.58
2022-12-18T06:08:56.296Z,49.97
2022-12-18T06:11:27.594Z,46.13
2022-12-18T06:13:58.529Z,46.30
2022-12-18T06:16:26.923Z,44.10
2022-12-18T06:18:54.422Z,46.67
2022-12-18T06:21:21.355Z,43.72
2022-12-18T06:23:48.339Z,48.55
2022-12-18T06:26:15.857Z,47.25
2022-12-18T06:28:43.265Z,51.17
2022-12-18T06:31:11.252Z,48.78
2022-12-18T06:33:39.458Z,54.30
2022-12-18T06:36:14.166Z,55.33
2022-12-18T06:38:44.184Z,52.60
2022-12-18T06:41:20.761Z,56.95
2022-12-18T06:43:47.984Z,62.63
2022-12-18T06:46:15.414Z,61.65
2022-12-18T06:48:42.777Z,54.05
2022-12-18T06:51:09.771Z,59.95
2022-12-18T06:53:36.932Z,50.55
2022-12-18T06:56:09.813Z,60.15
2022-12-18T06:58:38.659Z,45.42
2022-12-18T07:01:08.715Z,48.88
2022-12-18T07:03:35.904Z,49.20
2022-12-18T07:06:03.039Z,50.00
2022-12-18T07:08:31.213Z,51.67
2022-12-18T07:10:58.407Z,47.83
2022-12-18T07:13:25.412Z,43.17
2022-12-18T07:15:52.444Z,55.58
2022-12-18T07:18:19.389Z,55.33
2022-12-18T07:20:46.331Z,56.28
2022-12-18T07:23:14.888Z,48.60
2022-12-18T07:25:41.865Z,54.53
2022-12-18T07:28:11.703Z,56.72
2022-12-18T07:30:42.634Z,63.28
2022-12-18T07:33:09.639Z,56.58
2022-12-18T07:35:39.744Z,60.80
2022-12-18T07:38:07.059Z,56.45
2022-12-18T07:40:34.040Z,51.15
2022-12-18T07:43:01.056Z,56.28
2022-12-18T07:45:28.106Z,46.05
2022-12-18T07:47:55.157Z,53.25
2022-12-18T07:50:22.088Z,51.55
2022-12-18T07:52:48.947Z,44.22
2022-12-18T07:55:15.938Z,53.80
2022-12-18T07:57:52.496Z,50.45
2022-12-18T08:00:21.437Z,49.63
2022-12-18T08:02:48.597Z,49.03
2022-12-18T08:05:15.989Z,56.30
2022-12-18T08:07:43.026Z,54.75
2022-12-18T08:10:10.159Z,55.78
2022-12-18T08:12:37.088Z,53.05
2022-12-18T08:15:04.235Z,52.60
2022-12-18T08:17:31.780Z,56.97
2022-12-18T08:19:58.721Z,53.15
2022-12-18T08:22:26.189Z,50.40
2022-12-18T08:24:53.172Z,57.97
2022-12-18T08:27:29.311Z,52.03
2022-12-18T08:29:57.753Z,50.25
2022-12-18T08:32:26.153Z,55.45
2022-12-18T08:34:53.343Z,53.53
2022-12-18T08:37:20.595Z,51.90
2022-12-18T08:39:47.744Z,58.58
2022-12-18T08:42:33.271Z,58.53
2022-12-18T08:45:00.282Z,56.95
2022-12-18T08:47:27.196Z,56.17
2022-12-18T08:49:54.180Z,45.40
2022-12-18T08:52:21.188Z,52.60
2022-12-18T08:54:48.209Z,58.50
2022-12-18T08:57:15.209Z,60.35
2022-12-18T08:59:42.150Z,47.47
2022-12-18T09:02:12.904Z,46.65
2022-12-18T09:04:40.965Z,44.80
2022-12-18T09:07:08.314Z,46.30
2022-12-18T09:09:35.347Z,51.40
2022-12-18T09:12:02.425Z,49.78
2022-12-18T09:14:29.353Z,52.95
2022-12-18T09:16:56.365Z,48.80
2022-12-18T09:19:23.517Z,42.17
2022-12-18T09:21:50.679Z,47.80
2022-12-18T09:24:18.124Z,44.08
2022-12-18T09:26:47.015Z,44.40
2022-12-18T09:29:15.696Z,45.20
2022-12-18T09:31:43.730Z,41.85
2022-12-18T09:34:10.670Z,45.40
2022-12-18T09:36:38.472Z,45.35
2022-12-18T09:39:08.631Z,45.88
2022-12-18T09:41:54.558Z,44.95
2022-12-18T09:44:32.376Z,44.08
2022-12-18T09:47:26.447Z,46.67
2022-12-18T09:49:58.969Z,42.83
2022-12-18T09:52:28.940Z,40.30
2022-12-18T09:55:23.020Z,44.22
2022-12-18T09:57:54.384Z,38.45
2022-12-18T10:00:24.447Z,39.95
2022-12-18T10:02:54.296Z,36.05
2022-12-18T10:05:54.704Z,35.90
2022-12-18T10:08:42.300Z,33.85
2022-12-18T10:11:34.265Z,39.17
2022-12-18T10:14:24.471Z,42.03
2022-12-18T10:17:19.134Z,39.53
2022-12-18T10:20:24.193Z,33.88
2022-12-18T10:22:59.663Z,32.10
2022-12-18T10:25:37.613Z,38.80
2022-12-18T10:28:16.845Z,36.17
2022-12-18T10:30:44.884Z,35.05
2022-12-18T10:33:24.388Z,36.50
2022-12-18T10:35:52.272Z,37.17
2022-12-18T10:38:19.194Z,34.38
2022-12-18T10:40:49.666Z,37.50
2022-12-18T10:43:21.471Z,34.17
2022-12-18T10:46:09.602Z,34.55
2022-12-18T10:48:48.644Z,32.22
2022-12-18T10:51:37.204Z,34.70
2022-12-18T10:54:15.457Z,36.03
2022-12-18T10:56:43.016Z,37.95
2022-12-18T10:59:14.077Z,38.47
2022-12-18T11:01:56.275Z,34.53
2022-12-18T11:04:32.085Z,35.83
2022-12-18T11:07:07.860Z,35.67
2022-12-18T11:12:17.960Z,38.65
2022-12-18T11:14:47.790Z,31.27
2022-12-18T11:17:37.203Z,31.02
2022-12-18T11:20:08.036Z,37.97
2022-12-18T11:22:37.260Z,36.08
2022-12-18T11:25:34.671Z,32.83
2022-12-18T11:28:23.400Z,34.58
2022-12-18T11:30:50.323Z,33.45
2022-12-18T11:33:22.411Z,32.38
2022-12-18T11:35:52.164Z,34.45
2022-12-18T11:38:24.286Z,32.13
2022-12-18T11:40:58.220Z,30.80
2022-12-18T11:43:30.897Z,28.85
2022-12-18T11:46:06.683Z,33.30
2022-12-18T11:48:56.983Z,35.10
2022-12-18T11:51:38.416Z,33.38
2022-12-18T11:54:14.998Z,35.42
2022-12-18T11:57:16.244Z,34.00
2022-12-18T11:59:55.152Z,33.42
2022-12-18T12:02:52.323Z,34.20
2022-12-18T12:05:32.885Z,34.97
2022-12-18T12:08:08.545Z,38.90
2022-12-18T12:10:46.755Z,39.47
2022-12-18T12:13:45.044Z,37.60
2022-12-18T12:16:47.749Z,39.75
2022-12-18T12:19:33.397Z,39.13
2022-12-18T12:22:37.790Z,43.38
2022-12-18T12:25:49.418Z,36.70
2022-12-18T12:28:26.519Z,36.72
2022-12-18T12:31:01.791Z,36.88
2022-12-18T12:33:55.711Z,40.72
2022-12-18T12:36:26.738Z,35.25
2022-12-18T12:38:58.841Z,36.92
2022-12-18T12:41:47.665Z,47.00
2022-12-18T12:44:23.001Z,41.35
2022-12-18T12:46:52.188Z,38.00
2022-12-18T12:49:24.559Z,37.13
2022-12-18T12:52:16.231Z,40.35
2022-12-18T12:54:44.461Z,33.13
2022-12-18T12:57:36.920Z,37.38
2022-12-18T13:00:12.869Z,34.90
2022-12-18T13:03:15.317Z,35.58
2022-12-18T13:05:54.761Z,38.83
2022-12-18T13:08:31.644Z,33.53
2022-12-18T13:11:57.792Z,32.90
2022-12-18T13:14:29.217Z,34.22
2022-12-18T13:17:32.118Z,36.35
2022-12-18T13:20:08.266Z,34.63
2022-12-18T13:22:42.946Z,35.42
2022-12-18T13:25:28.556Z,35.42
2022-12-18T13:28:13.777Z,34.63
2022-12-18T13:30:46.431Z,33.08
2022-12-18T13:33:17.082Z,37.58
2022-12-18T13:35:47.339Z,36.67
2022-12-18T13:38:34.315Z,35.05
2022-12-18T13:41:22.041Z,34.97
2022-12-18T13:44:39.970Z,34.08
2022-12-18T13:47:34.850Z,35.28
2022-12-18T13:50:10.067Z,35.53
2022-12-18T13:52:40.894Z,32.22
2022-12-18T13:55:17.338Z,35.67
2022-12-18T13:57:44.966Z,36.58
2022-12-18T14:00:30.433Z,35.97
2022-12-18T14:02:58.982Z,34.45
2022-12-18T14:05:36.184Z,37.88
2022-12-18T14:08:07.640Z,32.80
2022-12-18T14:10:47.740Z,40.03
2022-12-18T14:13:24.628Z,35.92
2022-12-18T14:15:52.252Z,33.38
2022-12-18T14:18:42.920Z,35.70
2022-12-18T14:21:24.205Z,33.88
2022-12-18T14:24:05.129Z,33.40
2022-12-18T14:26:34.278Z,38.95
2022-12-18T14:29:18.849Z,36.45
2022-12-18T14:31:46.544Z,34.78
2022-12-18T14:34:18.023Z,31.08
2022-12-18T14:36:54.047Z,35.63
2022-12-18T14:39:21.002Z,33.72
2022-12-18T14:41:50.764Z,33.97
2022-12-18T14:44:17.799Z,33.58
2022-12-18T14:46:47.204Z,33.40
2022-12-18T14:49:28.336Z,32.05
2022-12-18T14:52:01.402Z,30.02
2022-12-18T14:54:30.677Z,34.50
2022-12-18T14:56:57.601Z,30.38
2022-12-18T14:59:27.012Z,30.23
2022-12-18T15:02:16.998Z,32.42
2022-12-18T15:04:45.027Z,34.67
2022-12-18T15:07:12.019Z,38.47
2022-12-18T15:09:41.541Z,32.40
2022-12-18T15:12:37.551Z,35.65
2022-12-18T15:15:05.754Z,34.85
2022-12-18T15:17:32.846Z,37.05
2022-12-18T15:20:10.107Z,33.78
2022-12-18T15:22:38.619Z,37.85
2022-12-18T15:25:38.724Z,37.30
2022-12-18T15:28:35.137Z,36.90
2022-12-18T15:31:14.211Z,40.00
2022-12-18T15:34:04.030Z,39.47
2022-12-18T15:36:31.453Z,36.95
2022-12-18T15:39:02.171Z,38.97
2022-12-18T15:41:37.187Z,42.40
2022-12-18T15:44:22.280Z,38.95
2022-12-18T15:46:49.359Z,37.72
2022-12-18T15:49:16.385Z,36.35
2022-12-18T15:51:43.403Z,40.15
2022-12-18T15:54:14.529Z,39.67
2022-12-18T15:56:59.981Z,38.92
2022-12-18T15:59:27.447Z,35.90
2022-12-18T16:01:54.556Z,40.72
2022-12-18T16:04:22.929Z,41.97
2022-12-18T16:09:37.906Z,39.90
2022-12-18T16:12:05.972Z,42.67
2022-12-18T16:14:33.506Z,46.90
2022-12-18T16:17:10.027Z,41.42
2022-12-18T16:19:37.010Z,39.08
2022-12-18T16:22:04.086Z,40.95
2022-12-18T16:24:33.126Z,43.63
2022-12-18T16:27:01.555Z,44.22
2022-12-18T16:29:30.248Z,44.17
2022-12-18T16:31:58.789Z,43.95
2022-12-18T16:34:35.839Z,42.92
2022-12-18T16:37:06.584Z,47.47
2022-12-18T16:39:35.360Z,45.80
2022-12-18T16:42:05.690Z,45.28
2022-12-18T16:44:34.491Z,44.05
2022-12-18T16:47:03.130Z,48.05
2022-12-18T16:49:30.736Z,47.60
2022-12-18T16:51:57.941Z,47.97
2022-12-18T16:54:25.289Z,44.38
2022-12-18T16:56:52.836Z,42.58
2022-12-18T16:59:20.083Z,46.10
2022-12-18T17:01:47.700Z,46.92
2022-12-18T17:04:17.107Z,51.70
2022-12-18T17:06:46.032Z,48.65
2022-12-18T17:09:15.675Z,55.20
2022-12-18T17:11:43.463Z,47.40
2022-12-18T17:14:19.459Z,50.28
2022-12-18T17:16:47.164Z,48.35
2022-12-18T17:19:17.464Z,51.92
2022-12-18T17:21:47.457Z,56.08
2022-12-18T17:24:14.564Z,49.70
2022-12-18T17:26:42.171Z,49.40
2022-12-18T17:29:12.768Z,52.28
2022-12-18T17:31:39.926Z,42.58
2022-12-18T17:34:06.922Z,49.63
2022-12-18T17:36:34.244Z,49.60
2022-12-18T17:39:02.933Z,53.15
2022-12-18T17:41:31.720Z,51.70
2022-12-18T17:44:06.216Z,50.75
2022-12-18T17:46:34.007Z,50.22
2022-12-18T17:49:03.442Z,51.63
2022-12-18T17:51:31.175Z,53.22
2022-12-18T17:53:58.223Z,51.67
2022-12-18T17:56:25.578Z,52.33
2022-12-18T17:58:52.713Z,63.17
2022-12-18T18:01:22.953Z,51.25
2022-12-18T18:03:51.875Z,56.42
2022-12-18T18:06:20.983Z,52.08
2022-12-18T18:08:48.502Z,54.17
2022-12-18T18:11:37.967Z,58.08
2022-12-18T18:14:08.451Z,72.00
2022-12-18T18:16:38.084Z,64.55
2022-12-18T18:19:16.316Z,71.15
2022-12-18T18:21:46.768Z,59.28
2022-12-18T18:24:17.627Z,68.78
2022-12-18T18:26:46.364Z,80.63
2022-12-18T18:29:17.012Z,62.53
2022-12-18T18:31:44.251Z,102.53
2022-12-18T18:34:16.293Z,324.83
2022-12-18T18:36:43.639Z,58.58
2022-12-18T18:39:10.574Z,57.47
2022-12-18T18:41:37.605Z,52.55
2022-12-18T18:44:05.064Z,54.08
2022-12-18T18:46:32.211Z,67.38
2022-12-18T18:48:59.320Z,55.30
2022-12-18T18:51:30.113Z,50.47
2022-12-18T18:54:01.503Z,61.45
2022-12-18T18:59:16.676Z,70.97
2022-12-18T19:01:44.214Z,100.80
2022-12-18T19:04:11.366Z,112.75
2022-12-18T19:06:38.357Z,77.18
2022-12-18T19:09:06.720Z,57.75
2022-12-18T19:12:09.630Z,113.50
2022-12-18T19:14:36.581Z,150.10
2022-12-18T19:17:03.603Z,120.40
2022-12-18T19:19:31.392Z,103.50
2022-12-18T19:21:58.597Z,60.60
2022-12-18T19:24:25.555Z,101.30
2022-12-18T19:26:53.780Z,123.32
2022-12-18T19:29:25.447Z,118.57
2022-12-18T19:31:52.632Z,133.23
2022-12-18T19:34:19.710Z,123.22
2022-12-18T19:36:46.697Z,113.60
2022-12-18T19:39:16.493Z,81.05
2022-12-18T19:41:44.041Z,88.50
2022-12-18T19:44:12.931Z,84.43
2022-12-18T19:46:41.916Z,67.68
2022-12-18T19:49:17.612Z,129.55
2022-12-18T19:51:45.737Z,110.28
2022-12-18T19:54:17.535Z,64.13
2022-12-18T19:56:45.656Z,59.90
2022-12-18T19:59:12.923Z,73.25
2022-12-18T20:01:40.008Z,64.45
2022-12-18T20:04:07.521Z,63.70
2022-12-18T20:06:45.353Z,60.42
2022-12-18T20:09:12.543Z,73.80
2022-12-18T20:11:41.651Z,108.28
2022-12-18T20:14:11.062Z,105.35
2022-12-18T20:16:38.570Z,117.78
2022-12-18T20:19:06.761Z,117.40
2022-12-18T20:21:34.328Z,81.43
2022-12-18T20:24:02.154Z,164.18
2022-12-18T20:26:29.716Z,96.07
2022-12-18T20:28:56.747Z,121.18
2022-12-18T20:31:24.336Z,132.70
2022-12-18T20:33:53.428Z,101.32
2022-12-18T20:36:27.051Z,87.20
2022-12-18T20:38:59.211Z,60.47
2022-12-18T20:41:32.781Z,112.32
2022-12-18T20:44:12.781Z,63.20
2022-12-18T20:46:56.288Z,62.20
2022-12-18T20:49:25.645Z,59.78
2022-12-18T20:51:54.097Z,70.85
2022-12-18T20:54:22.962Z,61.22
2022-12-18T20:56:50.465Z,64.50
2022-12-18T20:59:17.969Z,76.78
2022-12-18T21:01:48.414Z,68.47
2022-12-18T21:04:18.002Z,65.75
2022-12-18T21:06:50.966Z,71.10
2022-12-18T21:09:19.564Z,77.47
2022-12-18T21:12:04.893Z,66.40
2022-12-18T21:14:32.074Z,65.13
2022-12-18T21:17:02.429Z,78.18
2022-12-18T21:19:30.044Z,93.28
2022-12-18T21:21:57.896Z,81.22
2022-12-18T21:24:25.681Z,77.18
2022-12-18T21:26:53.934Z,106.25
2022-12-18T21:29:23.520Z,69.57
2022-12-18T21:31:52.157Z,73.05
2022-12-18T21:34:26.336Z,83.97
2022-12-18T21:36:53.889Z,75.50
2022-12-18T21:39:22.507Z,84.25
2022-12-18T21:42:08.815Z,72.47
2022-12-18T21:44:41.727Z,80.22
2022-12-18T21:47:21.471Z,71.28
2022-12-18T21:49:50.664Z,69.15
2022-12-18T21:52:17.718Z,61.47
2022-12-18T21:54:44.647Z,65.93
2022-12-18T21:57:13.703Z,64.05
2022-12-18T21:59:42.477Z,64.70
2022-12-18T22:02:21.263Z,69.80
2022-12-18T22:04:49.034Z,75.63
2022-12-18T22:07:17.179Z,84.43
2022-12-18T22:09:44.326Z,82.50
2022-12-18T22:12:35.318Z,90.57
2022-12-18T22:15:04.596Z,89.05
2022-12-18T22:17:32.092Z,105.90
2022-12-18T22:19:59.271Z,85.90
2022-12-18T22:22:26.441Z,99.30
2022-12-18T22:24:53.398Z,91.25
2022-12-18T22:27:20.376Z,83.78
2022-12-18T22:30:05.845Z,73.72
2022-12-18T22:32:36.301Z,77.37
2022-12-18T22:35:10.459Z,92.93
2022-12-18T22:37:41.234Z,81.45
2022-12-18T22:40:10.654Z,76.13
2022-12-18T22:42:40.549Z,68.57
2022-12-18T22:45:08.009Z,74.80
2022-12-18T22:47:34.958Z,76.07
2022-12-18T22:50:01.937Z,88.15
2022-12-18T22:52:28.868Z,71.35
2022-12-18T22:54:56.192Z,70.82
2022-12-18T22:57:24.359Z,65.70
2022-12-18T22:59:51.887Z,66.13
2022-12-18T23:02:19.849Z,66.00
2022-12-18T23:04:47.741Z,62.92
2022-12-18T23:07:15.442Z,67.07
2022-12-18T23:09:42.502Z,56.35
2022-12-18T23:12:14.712Z,60.40
2022-12-18T23:14:41.783Z,55.13
2022-12-18T23:17:08.744Z,59.95
2022-12-18T23:19:40.016Z,55.95
2022-12-18T23:22:11.824Z,56.00
2022-12-18T23:24:39.170Z,53.15
2022-12-18T23:27:09.390Z,56.28
2022-12-18T23:29:39.939Z,47.58
2022-12-18T23:32:07.436Z,55.95
2022-12-18T23:34:34.366Z,53.17
2022-12-18T23:37:03.509Z,52.50
2022-12-18T23:39:30.575Z,50.80
2022-12-18T23:41:58.480Z,50.00
2022-12-18T23:44:26.056Z,55.20
2022-12-18T23:46:53.276Z,51.65
2022-12-18T23:49:20.502Z,55.75
2022-12-18T23:51:47.542Z,53.60
2022-12-18T23:54:14.648Z,50.75
2022-12-18T23:56:41.640Z,49.60
2022-12-18T23:59:08.778Z,55.20
